createdAt,value
2019-02-10T00:00:55.788Z,1.87
2019-02-10T00:03:23.597Z,2.08
2019-02-10T00:05:51.431Z,2.50
2019-02-10T00:08:19.284Z,2.95
2019-02-10T00:10:47.135Z,2.92
2019-02-10T00:13:34.069Z,2.95
2019-02-10T00:16:03.213Z,2.58
2019-02-10T00:18:31.031Z,2.25
2019-02-10T00:20:58.885Z,2.15
2019-02-10T00:23:26.704Z,2.40
2019-02-10T00:25:54.541Z,3.05
2019-02-10T00:28:22.354Z,3.00
2019-02-10T00:30:50.181Z,2.37
2019-02-10T00:33:18.013Z,2.65
2019-02-10T00:35:45.821Z,2.33
2019-02-10T00:40:47.509Z,2.30
2019-02-10T00:43:15.376Z,3.35
2019-02-10T00:45:43.276Z,1.90
2019-02-10T00:48:11.157Z,2.17
2019-02-10T00:50:38.965Z,2.75
2019-02-10T00:53:06.821Z,2.35
2019-02-10T00:55:34.626Z,2.83
2019-02-10T00:58:02.461Z,2.60
2019-02-10T01:00:30.285Z,2.75
2019-02-10T01:02:58.117Z,2.65
2019-02-10T01:05:25.929Z,2.40
2019-02-10T01:07:53.739Z,2.85
2019-02-10T01:13:10.254Z,2.65
2019-02-10T01:15:38.066Z,2.15
2019-02-10T01:18:05.950Z,2.37
2019-02-10T01:20:33.770Z,2.27
2019-02-10T01:23:01.618Z,2.87
2019-02-10T01:25:29.451Z,2.35
2019-02-10T01:27:57.294Z,3.30
2019-02-10T01:30:25.107Z,2.90
2019-02-10T01:32:52.905Z,3.02
2019-02-10T01:35:20.775Z,2.95
2019-02-10T01:37:48.872Z,2.90
2019-02-10T01:40:16.694Z,2.40
2019-02-10T01:42:44.501Z,2.33
2019-02-10T01:45:12.341Z,2.25
2019-02-10T01:47:40.133Z,2.50
2019-02-10T01:50:08.591Z,2.27
2019-02-10T01:52:36.406Z,2.55
2019-02-10T01:55:04.854Z,2.65
2019-02-10T01:57:32.680Z,3.47
2019-02-10T02:00:00.534Z,3.98
2019-02-10T02:02:28.348Z,2.25
2019-02-10T02:04:56.191Z,2.70
2019-02-10T02:07:24.018Z,2.85
2019-02-10T02:09:51.864Z,2.92
2019-02-10T02:12:19.686Z,2.42
2019-02-10T02:14:47.518Z,3.80
2019-02-10T02:17:15.333Z,2.27
2019-02-10T02:19:43.125Z,3.65
2019-02-10T02:22:10.973Z,1.87
2019-02-10T02:24:38.771Z,2.95
2019-02-10T02:27:06.622Z,2.20
2019-02-10T02:29:34.418Z,2.25
2019-02-10T02:32:02.252Z,2.58
2019-02-10T02:34:30.070Z,2.25
2019-02-10T02:37:07.350Z,2.72
2019-02-10T02:39:27.413Z,1.60
2019-02-10T02:41:55.233Z,2.55
2019-02-10T02:44:23.034Z,2.30
2019-02-10T02:46:50.859Z,2.10
2019-02-10T02:49:18.653Z,2.12
2019-02-10T02:51:46.509Z,2.70
2019-02-10T02:54:14.337Z,2.55
2019-02-10T02:56:42.161Z,2.60
2019-02-10T02:59:09.962Z,2.00
2019-02-10T03:01:37.797Z,2.25
2019-02-10T03:04:05.602Z,2.30
2019-02-10T03:06:52.433Z,3.67
2019-02-10T03:09:20.223Z,2.33
2019-02-10T03:11:48.053Z,2.52
2019-02-10T03:14:15.869Z,2.95
2019-02-10T03:16:43.737Z,2.05
2019-02-10T03:19:11.573Z,2.55
2019-02-10T03:21:39.366Z,2.10
2019-02-10T03:24:07.194Z,3.08
2019-02-10T03:26:34.996Z,3.22
2019-02-10T03:29:02.834Z,2.35
2019-02-10T03:31:30.649Z,2.35
2019-02-10T03:33:58.458Z,2.85
2019-02-10T03:36:26.249Z,2.70
2019-02-10T03:38:54.069Z,3.10
2019-02-10T03:41:21.869Z,2.80
2019-02-10T03:46:23.102Z,2.02
2019-02-10T03:48:50.958Z,2.65
2019-02-10T03:51:18.757Z,2.55
2019-02-10T03:53:46.591Z,2.30
2019-02-10T03:56:14.425Z,2.27
2019-02-10T03:58:42.258Z,2.10
2019-02-10T04:01:10.058Z,2.40
2019-02-10T04:03:37.867Z,3.17
2019-02-10T04:06:05.668Z,2.75
2019-02-10T04:08:33.494Z,4.08
2019-02-10T04:11:01.288Z,2.22
2019-02-10T04:13:29.121Z,2.67
2019-02-10T04:15:56.939Z,2.85
2019-02-10T04:18:24.748Z,2.58
2019-02-10T04:20:52.565Z,2.58
2019-02-10T04:23:20.355Z,2.55
2019-02-10T04:25:48.182Z,2.45
2019-02-10T04:28:15.994Z,2.17
2019-02-10T04:30:43.843Z,2.35
2019-02-10T04:33:11.636Z,1.80
2019-02-10T04:38:33.404Z,1.82
2019-02-10T04:41:01.541Z,2.27
2019-02-10T04:43:29.328Z,2.27
2019-02-10T04:45:57.176Z,2.30
2019-02-10T04:48:24.961Z,1.80
2019-02-10T04:50:52.809Z,3.45
2019-02-10T04:53:20.595Z,2.22
2019-02-10T04:56:07.560Z,2.85
2019-02-10T04:58:35.358Z,2.30
2019-02-10T05:01:03.226Z,1.85
2019-02-10T05:03:31.058Z,2.12
2019-02-10T05:05:58.873Z,2.12
2019-02-10T05:08:26.679Z,2.30
2019-02-10T05:10:54.514Z,2.22
2019-02-10T05:13:22.333Z,2.15
2019-02-10T05:15:50.125Z,2.10
2019-02-10T05:18:18.062Z,2.10
2019-02-10T05:20:45.861Z,2.20
2019-02-10T05:23:13.681Z,2.45
2019-02-10T05:25:41.491Z,2.20
2019-02-10T05:28:09.355Z,2.42
2019-02-10T05:30:37.150Z,2.00
2019-02-10T05:33:05.151Z,2.00
2019-02-10T05:35:32.950Z,1.98
2019-02-10T05:38:04.205Z,1.85
2019-02-10T05:40:30.302Z,2.05
2019-02-10T05:42:58.127Z,2.30
2019-02-10T05:45:25.922Z,2.17
2019-02-10T05:47:53.744Z,1.90
2019-02-10T05:50:21.533Z,2.05
2019-02-10T05:52:49.350Z,1.60
2019-02-10T05:55:17.161Z,2.05
2019-02-10T05:57:44.981Z,1.62
2019-02-10T06:00:12.906Z,1.75
2019-02-10T06:02:40.689Z,1.30
2019-02-10T06:05:18.688Z,1.77
2019-02-10T06:07:46.487Z,1.40
2019-02-10T06:10:14.349Z,1.45
2019-02-10T06:12:42.145Z,2.20
2019-02-10T06:15:10.189Z,1.77
2019-02-10T06:17:37.994Z,1.65
2019-02-10T06:20:06.049Z,2.10
2019-02-10T06:22:33.862Z,2.00
2019-02-10T06:25:01.685Z,1.90
2019-02-10T06:27:29.492Z,1.70
2019-02-10T06:29:57.334Z,2.20
2019-02-10T06:32:25.156Z,1.60
2019-02-10T06:34:52.956Z,2.10
2019-02-10T06:37:20.780Z,1.60
2019-02-10T06:39:48.611Z,1.57
2019-02-10T06:42:17.997Z,1.70
2019-02-10T06:44:45.946Z,1.42
2019-02-10T06:47:13.777Z,1.35
2019-02-10T06:49:41.587Z,1.50
2019-02-10T06:52:09.376Z,1.60
2019-02-10T06:57:31.957Z,1.80
2019-02-10T07:00:18.805Z,1.55
2019-02-10T07:03:11.881Z,1.40
2019-02-10T07:05:39.685Z,1.95
2019-02-10T07:08:07.528Z,1.70
2019-02-10T07:10:35.327Z,1.57
2019-02-10T07:13:03.152Z,1.85
2019-02-10T07:15:50.025Z,1.87
2019-02-10T07:18:44.214Z,2.10
2019-02-10T07:21:12.010Z,1.65
2019-02-10T07:23:58.901Z,2.20
2019-02-10T07:26:37.096Z,2.30
2019-02-10T07:29:14.158Z,1.80
2019-02-10T07:31:49.008Z,1.30
2019-02-10T07:34:22.752Z,2.00
2019-02-10T07:36:55.085Z,1.22
2019-02-10T07:39:41.978Z,1.20
2019-02-10T07:42:14.276Z,1.47
2019-02-10T07:45:01.144Z,1.47
2019-02-10T07:47:48.057Z,1.40
2019-02-10T07:50:35.789Z,1.42
2019-02-10T07:53:23.573Z,2.45
2019-02-10T07:56:10.529Z,1.25
2019-02-10T07:58:57.470Z,1.45
2019-02-10T08:01:44.369Z,1.37
2019-02-10T08:04:31.286Z,1.20
2019-02-10T08:07:11.938Z,1.20
2019-02-10T08:09:58.844Z,1.00
2019-02-10T08:12:30.214Z,1.52
2019-02-10T08:15:17.261Z,1.20
2019-02-10T08:18:04.138Z,1.10
2019-02-10T08:20:51.051Z,1.30
2019-02-10T08:23:37.932Z,1.40
2019-02-10T08:26:24.858Z,1.10
2019-02-10T08:29:11.745Z,1.12
2019-02-10T08:31:58.841Z,1.20
2019-02-10T08:34:45.753Z,1.40
2019-02-10T08:37:32.633Z,1.10
2019-02-10T08:40:19.789Z,1.10
2019-02-10T08:43:06.695Z,1.10
2019-02-10T08:45:53.601Z,1.12
2019-02-10T08:48:40.490Z,1.07
2019-02-10T08:51:27.406Z,1.32
2019-02-10T08:53:55.256Z,1.00
2019-02-10T08:56:23.156Z,1.15
2019-02-10T08:58:50.995Z,1.15
2019-02-10T09:01:18.849Z,1.20
2019-02-10T09:03:46.682Z,1.40
2019-02-10T09:06:14.515Z,1.02
2019-02-10T09:08:42.364Z,1.00
2019-02-10T09:11:10.214Z,1.10
2019-02-10T09:13:38.061Z,0.90
2019-02-10T09:16:05.965Z,1.10
2019-02-10T09:18:33.804Z,1.30
2019-02-10T09:21:01.651Z,1.10
2019-02-10T09:23:29.500Z,1.10
2019-02-10T09:25:57.358Z,1.10
2019-02-10T09:28:25.210Z,1.10
2019-02-10T09:30:53.049Z,1.15
2019-02-10T09:33:20.952Z,1.00
2019-02-10T09:35:48.767Z,1.20
2019-02-10T09:38:16.632Z,1.10
2019-02-10T09:40:44.466Z,1.20
2019-02-10T09:43:12.377Z,1.35
2019-02-10T09:45:40.278Z,1.20
2019-02-10T09:48:08.114Z,1.30
2019-02-10T09:50:35.947Z,1.00
2019-02-10T09:53:03.834Z,0.90
2019-02-10T09:55:31.859Z,1.10
2019-02-10T09:57:59.746Z,1.10
2019-02-10T10:00:27.625Z,1.00
2019-02-10T10:02:55.489Z,1.10
2019-02-10T10:05:23.366Z,1.00
2019-02-10T10:07:51.258Z,1.10
2019-02-10T10:10:19.094Z,1.10
2019-02-10T10:12:46.948Z,1.07
2019-02-10T10:15:15.193Z,0.90
2019-02-10T10:17:43.014Z,0.90
2019-02-10T10:20:11.747Z,0.80
2019-02-10T10:22:39.584Z,1.22
2019-02-10T10:27:41.854Z,0.98
2019-02-10T10:30:11.221Z,0.90
2019-02-10T10:32:39.065Z,0.90
2019-02-10T10:35:06.928Z,1.00
2019-02-10T10:37:34.776Z,0.90
2019-02-10T10:40:15.349Z,0.80
2019-02-10T10:42:32.799Z,1.00
2019-02-10T10:45:00.699Z,0.95
2019-02-10T10:47:28.798Z,0.98
2019-02-10T10:49:56.674Z,1.00
2019-02-10T10:52:24.497Z,0.80
2019-02-10T10:54:52.406Z,0.93
2019-02-10T10:57:20.354Z,0.98
2019-02-10T11:00:07.249Z,0.93
2019-02-10T11:02:35.159Z,0.80
2019-02-10T11:05:03.037Z,0.90
2019-02-10T11:07:49.994Z,1.10
2019-02-10T11:10:17.888Z,1.00
2019-02-10T11:12:45.703Z,1.30
2019-02-10T11:15:14.611Z,1.00
2019-02-10T11:17:42.453Z,1.20
2019-02-10T11:20:10.326Z,1.00
2019-02-10T11:22:38.157Z,0.88
2019-02-10T11:25:06.157Z,1.15
2019-02-10T11:27:34.009Z,1.20
2019-02-10T11:30:03.894Z,1.40
2019-02-10T11:32:31.799Z,1.10
2019-02-10T11:34:59.706Z,1.20
2019-02-10T11:37:27.586Z,1.30
2019-02-10T11:39:55.457Z,1.10
2019-02-10T11:42:23.362Z,1.12
2019-02-10T11:44:51.240Z,1.20
2019-02-10T11:47:19.122Z,0.95
2019-02-10T11:49:47.972Z,1.00
2019-02-10T11:52:15.894Z,1.40
2019-02-10T11:54:43.729Z,1.37
2019-02-10T11:57:11.730Z,1.00
2019-02-10T11:59:39.820Z,1.25
2019-02-10T12:02:07.703Z,1.20
2019-02-10T12:04:35.540Z,1.20
2019-02-10T12:07:03.413Z,1.10
2019-02-10T12:09:31.313Z,0.98
2019-02-10T12:11:59.299Z,1.10
2019-02-10T12:14:27.162Z,1.32
2019-02-10T12:16:55.034Z,1.20
2019-02-10T12:19:22.888Z,1.12
2019-02-10T12:21:50.777Z,1.00
2019-02-10T12:24:18.658Z,1.10
2019-02-10T12:26:46.489Z,1.20
2019-02-10T12:29:14.349Z,1.00
2019-02-10T12:31:42.287Z,1.25
2019-02-10T12:34:10.173Z,1.10
2019-02-10T12:36:38.068Z,1.12
2019-02-10T12:42:00.874Z,1.20
2019-02-10T12:44:28.843Z,1.35
2019-02-10T12:46:56.704Z,1.00
2019-02-10T12:49:24.822Z,1.35
2019-02-10T12:51:52.641Z,1.30
2019-02-10T12:54:20.604Z,1.80
2019-02-10T12:56:48.455Z,1.45
2019-02-10T12:59:16.323Z,1.55
2019-02-10T13:01:44.215Z,1.35
2019-02-10T13:04:12.082Z,1.40
2019-02-10T13:06:39.961Z,1.50
2019-02-10T13:11:45.728Z,1.77
2019-02-10T13:14:13.605Z,1.80
2019-02-10T13:16:41.495Z,1.50
2019-02-10T13:19:09.384Z,2.30
2019-02-10T13:21:37.268Z,1.30
2019-02-10T13:24:05.230Z,1.70
2019-02-10T13:26:33.207Z,2.00
2019-02-10T13:29:01.105Z,1.70
2019-02-10T13:31:29.017Z,1.70
2019-02-10T13:33:56.868Z,2.08
2019-02-10T13:36:24.774Z,2.10
2019-02-10T13:38:52.648Z,1.95
2019-02-10T13:41:20.608Z,2.45
2019-02-10T13:43:48.486Z,2.50
2019-02-10T13:46:16.377Z,1.85
2019-02-10T13:48:44.239Z,1.80
2019-02-10T13:51:12.123Z,2.20
2019-02-10T13:53:39.985Z,2.47
2019-02-10T13:56:07.890Z,1.95
2019-02-10T13:58:35.817Z,2.72
2019-02-10T14:01:03.686Z,2.47
2019-02-10T14:03:31.531Z,2.65
2019-02-10T14:05:59.439Z,3.00
2019-02-10T14:08:27.288Z,3.10
2019-02-10T14:10:55.225Z,2.83
2019-02-10T14:13:23.134Z,3.10
2019-02-10T14:15:50.965Z,2.85
2019-02-10T14:18:18.818Z,2.55
2019-02-10T14:20:46.722Z,3.30
2019-02-10T14:23:14.615Z,2.80
2019-02-10T14:25:42.461Z,3.00
2019-02-10T14:28:10.327Z,2.42
2019-02-10T14:30:38.167Z,2.83
2019-02-10T14:33:06.075Z,3.67
2019-02-10T14:35:33.961Z,3.85
2019-02-10T14:38:01.874Z,3.30
2019-02-10T14:40:33.639Z,3.70
2019-02-10T14:42:59.316Z,4.00
2019-02-10T14:45:27.171Z,3.95
2019-02-10T14:47:55.082Z,4.20
2019-02-10T14:50:22.904Z,4.10
2019-02-10T14:52:50.784Z,3.85
2019-02-10T14:55:18.979Z,3.40
2019-02-10T14:57:46.835Z,3.90
2019-02-10T15:00:14.705Z,3.67
2019-02-10T15:02:42.646Z,3.35
2019-02-10T15:05:10.574Z,3.72
2019-02-10T15:07:38.511Z,3.60
2019-02-10T15:10:07.712Z,3.58
2019-02-10T15:12:35.586Z,2.75
2019-02-10T15:15:03.578Z,3.30
2019-02-10T15:17:31.465Z,3.12
2019-02-10T15:19:59.326Z,2.65
2019-02-10T15:22:27.180Z,2.70
2019-02-10T15:24:55.073Z,3.55
2019-02-10T15:27:22.925Z,2.37
2019-02-10T15:29:50.881Z,3.00
2019-02-10T15:32:18.744Z,2.87
2019-02-10T15:34:46.593Z,3.08
2019-02-10T15:37:14.450Z,2.35
2019-02-10T15:39:42.347Z,2.05
2019-02-10T15:42:10.221Z,2.10
2019-02-10T15:44:38.198Z,1.95
2019-02-10T15:47:06.040Z,2.30
2019-02-10T15:49:33.875Z,2.60
2019-02-10T15:52:01.737Z,2.60
2019-02-10T15:54:29.589Z,2.50
2019-02-10T15:56:57.526Z,2.90
2019-02-10T15:59:25.382Z,3.10
2019-02-10T16:01:53.403Z,3.58
2019-02-10T16:04:21.311Z,3.15
2019-02-10T16:09:23.042Z,3.12
2019-02-10T16:11:50.965Z,3.17
2019-02-10T16:14:18.825Z,3.10
2019-02-10T16:16:46.797Z,3.10
2019-02-10T16:19:14.601Z,4.40
2019-02-10T16:21:42.511Z,4.80
2019-02-10T16:24:10.348Z,4.87
2019-02-10T16:29:11.495Z,3.52
2019-02-10T16:31:39.477Z,2.87
2019-02-10T16:34:07.317Z,2.58
2019-02-10T16:36:35.178Z,3.17
2019-02-10T16:41:51.735Z,3.00
2019-02-10T16:44:19.566Z,2.80
2019-02-10T16:46:47.472Z,2.27
2019-02-10T16:49:15.367Z,2.45
2019-02-10T16:51:43.241Z,1.50
2019-02-10T16:54:11.184Z,1.50
2019-02-10T16:59:43.526Z,1.52
2019-02-10T17:02:11.457Z,1.90
2019-02-10T17:04:39.429Z,2.05
2019-02-10T17:07:07.712Z,1.85
2019-02-10T17:09:35.664Z,2.27
2019-02-10T17:12:03.533Z,1.87
2019-02-10T17:14:31.410Z,1.90
2019-02-10T17:16:59.275Z,1.75
2019-02-10T17:19:27.238Z,2.20
2019-02-10T17:21:55.085Z,3.00
2019-02-10T17:24:22.958Z,2.65
2019-02-10T17:26:50.817Z,3.02
2019-02-10T17:29:18.682Z,3.75
2019-02-10T17:31:46.542Z,4.35
2019-02-10T17:39:22.038Z,3.50
2019-02-10T17:41:49.938Z,4.60
2019-02-10T17:44:17.840Z,3.90
2019-02-10T17:46:45.658Z,4.53
2019-02-10T17:49:13.593Z,4.47
2019-02-10T17:51:41.458Z,4.00
2019-02-10T17:54:09.408Z,4.22
2019-02-10T17:56:37.299Z,3.70
2019-02-10T17:59:05.292Z,4.33
2019-02-10T18:01:33.161Z,3.30
2019-02-10T18:04:01.034Z,3.05
2019-02-10T18:06:28.930Z,2.60
2019-02-10T18:08:56.784Z,2.58
2019-02-10T18:11:30.893Z,2.33
2019-02-10T18:13:54.234Z,2.50
2019-02-10T18:16:41.090Z,2.40
2019-02-10T18:19:27.971Z,1.92
2019-02-10T18:22:14.883Z,2.30
2019-02-10T18:25:01.761Z,2.83
2019-02-10T18:27:37.833Z,2.62
2019-02-10T18:30:25.314Z,2.25
2019-02-10T18:33:12.180Z,2.45
2019-02-10T18:35:59.160Z,2.08
2019-02-10T18:38:46.090Z,1.90
2019-02-10T18:41:39.097Z,1.55
2019-02-10T18:44:21.580Z,1.50
2019-02-10T18:47:08.559Z,1.77
2019-02-10T18:49:55.441Z,1.82
2019-02-10T18:52:42.482Z,1.90
2019-02-10T18:55:29.358Z,1.80
2019-02-10T18:58:16.374Z,1.52
2019-02-10T19:01:03.227Z,1.65
2019-02-10T19:03:50.079Z,1.70
2019-02-10T19:06:36.899Z,1.80
2019-02-10T19:12:18.262Z,1.55
2019-02-10T19:15:05.081Z,1.60
2019-02-10T19:17:52.248Z,2.10
2019-02-10T19:20:39.097Z,2.20
2019-02-10T19:23:26.044Z,2.17
2019-02-10T19:26:12.877Z,1.85
2019-02-10T19:28:59.794Z,1.75
2019-02-10T19:31:46.666Z,2.10
2019-02-10T19:34:33.566Z,1.70
2019-02-10T19:37:20.423Z,2.22
2019-02-10T19:40:07.335Z,3.10
2019-02-10T19:42:54.178Z,2.90
2019-02-10T19:45:41.109Z,2.90
2019-02-10T19:48:28.112Z,3.17
2019-02-10T19:51:15.043Z,3.20
2019-02-10T19:53:50.532Z,3.27
2019-02-10T19:59:51.514Z,3.98
2019-02-10T20:02:27.371Z,4.05
2019-02-10T20:05:14.393Z,3.60
2019-02-10T20:07:54.758Z,3.95
2019-02-10T20:10:41.725Z,3.42
2019-02-10T20:13:18.994Z,3.20
2019-02-10T20:16:05.872Z,3.10
2019-02-10T20:18:42.598Z,3.52
2019-02-10T20:21:29.510Z,3.50
2019-02-10T20:24:16.449Z,4.28
2019-02-10T20:27:03.420Z,3.85
2019-02-10T20:29:50.342Z,4.30
2019-02-10T20:32:37.212Z,4.20
2019-02-10T20:35:27.094Z,4.58
2019-02-10T20:38:14.114Z,4.42
2019-02-10T20:41:01.042Z,5.15
2019-02-10T20:43:47.881Z,5.33
2019-02-10T20:46:34.792Z,5.70
2019-02-10T20:49:21.613Z,6.37
2019-02-10T20:52:08.494Z,5.97
2019-02-10T20:54:55.311Z,6.30
2019-02-10T20:57:42.306Z,6.35
2019-02-10T21:00:22.114Z,6.35
2019-02-10T21:03:08.943Z,7.03
2019-02-10T21:05:55.839Z,6.95
2019-02-10T21:08:42.833Z,7.95
2019-02-10T21:11:29.708Z,7.30
2019-02-10T21:14:18.927Z,7.53
2019-02-10T21:17:06.108Z,6.95
2019-02-10T21:19:52.943Z,6.90
2019-02-10T21:22:39.861Z,7.40
2019-02-10T21:25:15.138Z,6.97
2019-02-10T21:28:02.106Z,6.80
2019-02-10T21:30:48.919Z,8.00
2019-02-10T21:33:35.782Z,6.90
2019-02-10T21:36:24.943Z,7.20
2019-02-10T21:39:11.790Z,7.20
2019-02-10T21:41:58.605Z,6.15
2019-02-10T21:44:45.567Z,6.47
2019-02-10T21:47:22.315Z,7.37
2019-02-10T21:49:50.149Z,5.53
2019-02-10T21:52:17.998Z,6.85
2019-02-10T21:54:45.841Z,5.70
2019-02-10T21:57:13.857Z,6.75
2019-02-10T21:59:41.706Z,6.25
2019-02-10T22:02:09.561Z,6.03
2019-02-10T22:04:37.426Z,6.17
2019-02-10T22:07:05.246Z,5.22
2019-02-10T22:09:33.120Z,5.25
2019-02-10T22:12:00.967Z,5.53
2019-02-10T22:14:28.787Z,5.05
2019-02-10T22:19:30.440Z,3.40
2019-02-10T22:21:58.308Z,2.20
2019-02-10T22:24:26.138Z,2.25
2019-02-10T22:26:53.986Z,1.70
2019-02-10T22:29:21.786Z,1.75
2019-02-10T22:31:49.647Z,2.50
2019-02-10T22:34:17.457Z,2.00
2019-02-10T22:36:45.303Z,2.80
2019-02-10T22:39:13.128Z,2.08
2019-02-10T22:41:40.950Z,2.98
2019-02-10T22:44:08.787Z,2.85
2019-02-10T22:46:36.610Z,2.67
2019-02-10T22:49:04.439Z,2.90
2019-02-10T22:51:32.330Z,3.60
2019-02-10T22:54:00.163Z,3.35
2019-02-10T22:56:28.035Z,3.50
2019-02-10T22:58:55.892Z,3.70
2019-02-10T23:01:23.753Z,3.75
2019-02-10T23:03:51.621Z,3.02
2019-02-10T23:06:19.417Z,3.27
2019-02-10T23:08:47.270Z,2.58
2019-02-10T23:11:15.061Z,2.25
2019-02-10T23:13:42.901Z,2.60
2019-02-10T23:16:10.705Z,2.42
2019-02-10T23:18:38.541Z,2.37
2019-02-10T23:21:06.338Z,2.30
2019-02-10T23:23:34.181Z,2.12
2019-02-10T23:26:01.996Z,2.33
2019-02-10T23:28:29.846Z,2.27
2019-02-10T23:30:57.674Z,2.42
2019-02-10T23:33:25.533Z,2.15
2019-02-10T23:35:53.341Z,2.58
2019-02-10T23:38:21.189Z,2.30
2019-02-10T23:40:48.993Z,3.10
2019-02-10T23:43:16.834Z,2.77
2019-02-10T23:45:44.741Z,3.92
2019-02-10T23:48:12.542Z,3.00
2019-02-10T23:50:40.385Z,2.60
2019-02-10T23:53:08.195Z,3.25
2019-02-10T23:55:36.024Z,3.30
2019-02-10T23:58:03.823Z,3.52
